sensor_id;sensor_type;location;lat;lon;timestamp;pressure;altitude;pressure_sealevel;temperature;humidity
804;BME280;25687;49.976;8.240;2023-01-28T00:01:08;100943.84;;;2.20;100.00
804;BME280;25687;49.976;8.240;2023-01-28T00:03:33;100942.19;;;2.16;100.00
804;BME280;25687;49.976;8.240;2023-01-28T00:06:06;100954.88;;;2.21;100.00
804;BME280;25687;49.976;8.240;2023-01-28T00:08:32;100944.75;;;2.13;100.00
804;BME280;25687;49.976;8.240;2023-01-28T00:11:00;100945.59;;;2.12;100.00
804;BME280;25687;49.976;8.240;2023-01-28T00:13:26;100949.84;;;2.12;100.00
804;BME280;25687;49.976;8.240;2023-01-28T00:15:58;100946.44;;;2.17;100.00
804;BME280;25687;49.976;8.240;2023-01-28T00:18:24;100944.75;;;2.15;100.00
804;BME280;25687;49.976;8.240;2023-01-28T00:20:56;100947.28;;;2.13;100.00
804;BME280;25687;49.976;8.240;2023-01-28T00:23:22;100946.47;;;2.08;100.00
804;BME280;25687;49.976;8.240;2023-01-28T00:25:47;100951.56;;;2.03;100.00
804;BME280;25687;49.976;8.240;2023-01-28T00:28:13;100944.78;;;2.10;100.00
804;BME280;25687;49.976;8.240;2023-01-28T00:30:38;100939.75;;;2.02;100.00
804;BME280;25687;49.976;8.240;2023-01-28T00:33:03;100949.88;;;2.01;100.00
804;BME280;25687;49.976;8.240;2023-01-28T00:35:28;100945.72;;;1.95;100.00
804;BME280;25687;49.976;8.240;2023-01-28T00:37:54;100953.31;;;1.97;100.00
804;BME280;25687;49.976;8.240;2023-01-28T00:40:19;100955.00;;;1.93;100.00
804;BME280;25687;49.976;8.240;2023-01-28T00:42:44;100955.84;;;1.95;100.00
804;BME280;25687;49.976;8.240;2023-01-28T00:45:09;100949.91;;;1.98;100.00
804;BME280;25687;49.976;8.240;2023-01-28T00:47:34;100959.22;;;1.99;100.00
804;BME280;25687;49.976;8.240;2023-01-28T00:50:00;100954.16;;;1.96;100.00
804;BME280;25687;49.976;8.240;2023-01-28T00:52:25;100954.97;;;2.01;100.00
804;BME280;25687;49.976;8.240;2023-01-28T00:54:50;100962.66;;;1.90;100.00
804;BME280;25687;49.976;8.240;2023-01-28T00:57:15;100958.44;;;1.84;100.00
804;BME280;25687;49.976;8.240;2023-01-28T00:59:40;100960.09;;;1.88;100.00
804;BME280;25687;49.976;8.240;2023-01-28T01:02:06;100959.28;;;1.88;100.00
804;BME280;25687;49.976;8.240;2023-01-28T01:04:40;100958.44;;;1.87;100.00
804;BME280;25687;49.976;8.240;2023-01-28T01:07:18;100953.41;;;1.81;100.00
804;BME280;25687;49.976;8.240;2023-01-28T01:09:43;100956.78;;;1.80;100.00
804;BME280;25687;49.976;8.240;2023-01-28T01:12:09;100963.50;;;1.84;100.00
804;BME280;25687;49.976;8.240;2023-01-28T01:14:34;100959.25;;;1.89;100.00
804;BME280;25687;49.976;8.240;2023-01-28T01:16:59;100957.59;;;1.85;100.00
804;BME280;25687;49.976;8.240;2023-01-28T01:19:24;100959.28;;;1.88;100.00
804;BME280;25687;49.976;8.240;2023-01-28T01:21:50;100957.56;;;1.91;100.00
804;BME280;25687;49.976;8.240;2023-01-28T01:24:15;100957.56;;;1.90;100.00
804;BME280;25687;49.976;8.240;2023-01-28T01:26:41;100961.00;;;1.83;100.00
804;BME280;25687;49.976;8.240;2023-01-28T01:29:06;100960.13;;;1.81;100.00
804;BME280;25687;49.976;8.240;2023-01-28T01:31:33;100956.75;;;1.82;100.00
804;BME280;25687;49.976;8.240;2023-01-28T01:33:58;100969.44;;;1.82;100.00
804;BME280;25687;49.976;8.240;2023-01-28T01:36:24;100963.53;;;1.83;100.00
804;BME280;25687;49.976;8.240;2023-01-28T01:38:53;100957.63;;;1.79;100.00
804;BME280;25687;49.976;8.240;2023-01-28T01:41:29;100972.00;;;1.80;100.00
804;BME280;25687;49.976;8.240;2023-01-28T01:43:59;100971.13;;;1.84;100.00
804;BME280;25687;49.976;8.240;2023-01-28T01:46:35;100975.34;;;1.82;100.00
804;BME280;25687;49.976;8.240;2023-01-28T01:49:22;100979.63;;;1.75;100.00
804;BME280;25687;49.976;8.240;2023-01-28T01:51:50;100979.59;;;1.78;100.00
804;BME280;25687;49.976;8.240;2023-01-28T01:54:16;100980.47;;;1.70;100.00
804;BME280;25687;49.976;8.240;2023-01-28T01:56:42;100978.78;;;1.67;100.00
804;BME280;25687;49.976;8.240;2023-01-28T01:59:10;100980.47;;;1.70;100.00
804;BME280;25687;49.976;8.240;2023-01-28T02:01:36;100981.34;;;1.70;100.00
804;BME280;25687;49.976;8.240;2023-01-28T02:06:27;100983.00;;;1.77;100.00
804;BME280;25687;49.976;8.240;2023-01-28T02:08:53;100981.28;;;1.80;100.00
804;BME280;25687;49.976;8.240;2023-01-28T02:11:19;100988.91;;;1.81;100.00
804;BME280;25687;49.976;8.240;2023-01-28T02:16:47;100986.34;;;1.86;100.00
804;BME280;25687;49.976;8.240;2023-01-28T02:19:12;100986.38;;;1.78;100.00
804;BME280;25687;49.976;8.240;2023-01-28T02:24:41;100988.91;;;1.81;100.00
804;BME280;25687;49.976;8.240;2023-01-28T02:27:15;100985.50;;;1.82;100.00
804;BME280;25687;49.976;8.240;2023-01-28T02:29:45;100988.06;;;1.84;100.00
804;BME280;25687;49.976;8.240;2023-01-28T02:35:21;100994.84;;;1.72;100.00
804;BME280;25687;49.976;8.240;2023-01-28T02:37:54;100989.75;;;1.78;100.00
804;BME280;25687;49.976;8.240;2023-01-28T02:40:23;100994.00;;;1.75;100.00
804;BME280;25687;49.976;8.240;2023-01-28T02:42:53;100988.09;;;1.70;100.00
804;BME280;25687;49.976;8.240;2023-01-28T02:45:20;100986.41;;;1.72;100.00
804;BME280;25687;49.976;8.240;2023-01-28T02:47:45;100992.31;;;1.71;100.00
804;BME280;25687;49.976;8.240;2023-01-28T02:50:25;100991.47;;;1.73;100.00
804;BME280;25687;49.976;8.240;2023-01-28T02:53:00;100989.75;;;1.80;100.00
804;BME280;25687;49.976;8.240;2023-01-28T02:55:50;100993.16;;;1.77;100.00
804;BME280;25687;49.976;8.240;2023-01-28T02:58:37;100998.22;;;1.70;100.00
804;BME280;25687;49.976;8.240;2023-01-28T03:01:15;101010.91;;;1.70;100.00
804;BME280;25687;49.976;8.240;2023-01-28T03:06:11;101003.31;;;1.70;100.00
804;BME280;25687;49.976;8.240;2023-01-28T03:08:43;101001.63;;;1.72;100.00
804;BME280;25687;49.976;8.240;2023-01-28T03:11:29;101009.22;;;1.75;100.00
804;BME280;25687;49.976;8.240;2023-01-28T03:14:14;101010.09;;;1.69;100.00
804;BME280;25687;49.976;8.240;2023-01-28T03:16:59;101010.94;;;1.67;100.00
804;BME280;25687;49.976;8.240;2023-01-28T03:19:44;101019.38;;;1.72;100.00
804;BME280;25687;49.976;8.240;2023-01-28T03:22:28;101019.34;;;1.80;100.00
804;BME280;25687;49.976;8.240;2023-01-28T03:25:14;101014.31;;;1.75;100.00
804;BME280;25687;49.976;8.240;2023-01-28T03:28:01;101019.38;;;1.72;100.00
804;BME280;25687;49.976;8.240;2023-01-28T03:30:51;101021.94;;;1.69;100.00
804;BME280;25687;49.976;8.240;2023-01-28T03:33:37;101018.53;;;1.64;100.00
804;BME280;25687;49.976;8.240;2023-01-28T03:36:22;101021.91;;;1.67;100.00
804;BME280;25687;49.976;8.240;2023-01-28T03:39:06;101028.66;;;1.70;100.00
804;BME280;25687;49.976;8.240;2023-01-28T03:41:31;101027.84;;;1.65;100.00
804;BME280;25687;49.976;8.240;2023-01-28T03:43:56;101022.75;;;1.66;100.00
804;BME280;25687;49.976;8.240;2023-01-28T03:46:22;101031.22;;;1.71;100.00
804;BME280;25687;49.976;8.240;2023-01-28T03:48:47;101033.72;;;1.76;100.00
804;BME280;25687;49.976;8.240;2023-01-28T03:51:12;101032.91;;;1.74;100.00
804;BME280;25687;49.976;8.240;2023-01-28T03:53:38;101035.44;;;1.66;100.00
804;BME280;25687;49.976;8.240;2023-01-28T03:56:04;101039.69;;;1.63;100.00
804;BME280;25687;49.976;8.240;2023-01-28T03:58:29;101043.94;;;1.56;100.00
804;BME280;25687;49.976;8.240;2023-01-28T04:01:16;101038.84;;;1.56;100.00
804;BME280;25687;49.976;8.240;2023-01-28T04:03:41;101044.78;;;1.63;100.00
804;BME280;25687;49.976;8.240;2023-01-28T04:06:07;101039.69;;;1.70;100.00
804;BME280;25687;49.976;8.240;2023-01-28T04:08:33;101041.38;;;1.68;100.00
804;BME280;25687;49.976;8.240;2023-01-28T04:10:58;101041.38;;;1.71;100.00
804;BME280;25687;49.976;8.240;2023-01-28T04:13:39;101043.91;;;1.65;100.00
804;BME280;25687;49.976;8.240;2023-01-28T04:16:05;101041.38;;;1.64;100.00
804;BME280;25687;49.976;8.240;2023-01-28T04:18:30;101041.38;;;1.64;100.00
804;BME280;25687;49.976;8.240;2023-01-28T04:20:55;101046.47;;;1.60;100.00
804;BME280;25687;49.976;8.240;2023-01-28T04:23:20;101045.59;;;1.63;100.00
804;BME280;25687;49.976;8.240;2023-01-28T04:25:48;101043.91;;;1.62;100.00
804;BME280;25687;49.976;8.240;2023-01-28T04:28:13;101042.19;;;1.67;100.00
804;BME280;25687;49.976;8.240;2023-01-28T04:30:38;101048.13;;;1.65;100.00
804;BME280;25687;49.976;8.240;2023-01-28T04:33:04;101044.75;;;1.70;100.00
804;BME280;25687;49.976;8.240;2023-01-28T04:35:29;101043.03;;;1.71;100.00
804;BME280;25687;49.976;8.240;2023-01-28T04:37:54;101047.31;;;1.64;100.00
804;BME280;25687;49.976;8.240;2023-01-28T04:40:19;101049.84;;;1.64;100.00
804;BME280;25687;49.976;8.240;2023-01-28T04:42:51;101051.50;;;1.70;100.00
804;BME280;25687;49.976;8.240;2023-01-28T04:45:16;101048.13;;;1.69;100.00
804;BME280;25687;49.976;8.240;2023-01-28T04:47:41;101048.97;;;1.70;100.00
804;BME280;25687;49.976;8.240;2023-01-28T04:50:07;101048.97;;;1.73;100.00
804;BME280;25687;49.976;8.240;2023-01-28T04:52:32;101048.09;;;1.75;100.00
804;BME280;25687;49.976;8.240;2023-01-28T04:54:57;101048.09;;;1.72;100.00
804;BME280;25687;49.976;8.240;2023-01-28T04:57:22;101043.91;;;1.64;100.00
804;BME280;25687;49.976;8.240;2023-01-28T04:59:47;101037.97;;;1.71;100.00
804;BME280;25687;49.976;8.240;2023-01-28T05:02:13;101040.53;;;1.65;100.00
804;BME280;25687;49.976;8.240;2023-01-28T05:04:38;101045.59;;;1.66;100.00
804;BME280;25687;49.976;8.240;2023-01-28T05:07:03;101050.66;;;1.65;100.00
804;BME280;25687;49.976;8.240;2023-01-28T05:09:28;101052.41;;;1.56;100.00
804;BME280;25687;49.976;8.240;2023-01-28T05:11:53;101059.13;;;1.56;100.00
804;BME280;25687;49.976;8.240;2023-01-28T05:14:18;101056.59;;;1.51;100.00
804;BME280;25687;49.976;8.240;2023-01-28T05:16:44;101055.75;;;1.57;100.00
804;BME280;25687;49.976;8.240;2023-01-28T05:19:09;101059.16;;;1.48;100.00
804;BME280;25687;49.976;8.240;2023-01-28T05:21:34;101054.09;;;1.43;100.00
804;BME280;25687;49.976;8.240;2023-01-28T05:23:59;101060.00;;;1.45;100.00
804;BME280;25687;49.976;8.240;2023-01-28T05:26:24;101065.91;;;1.51;100.00
804;BME280;25687;49.976;8.240;2023-01-28T05:28:50;101065.91;;;1.52;100.00
804;BME280;25687;49.976;8.240;2023-01-28T05:31:15;101063.38;;;1.46;100.00
804;BME280;25687;49.976;8.240;2023-01-28T05:33:40;101067.59;;;1.42;100.00
804;BME280;25687;49.976;8.240;2023-01-28T05:36:05;101062.56;;;1.39;100.00
804;BME280;25687;49.976;8.240;2023-01-28T05:38:31;101063.41;;;1.32;100.00
804;BME280;25687;49.976;8.240;2023-01-28T05:40:56;101058.31;;;1.35;100.00
804;BME280;25687;49.976;8.240;2023-01-28T05:43:21;101064.22;;;1.33;100.00
804;BME280;25687;49.976;8.240;2023-01-28T05:45:46;101067.63;;;1.36;100.00
804;BME280;25687;49.976;8.240;2023-01-28T05:48:12;101068.44;;;1.35;100.00
804;BME280;25687;49.976;8.240;2023-01-28T05:50:38;101072.69;;;1.36;100.00
804;BME280;25687;49.976;8.240;2023-01-28T05:53:06;101083.69;;;1.31;100.00
804;BME280;25687;49.976;8.240;2023-01-28T05:55:32;101085.38;;;1.35;100.00
804;BME280;25687;49.976;8.240;2023-01-28T05:57:57;101090.44;;;1.28;100.00
804;BME280;25687;49.976;8.240;2023-01-28T06:00:22;101078.63;;;1.29;100.00
804;BME280;25687;49.976;8.240;2023-01-28T06:02:49;101073.56;;;1.29;100.00
804;BME280;25687;49.976;8.240;2023-01-28T06:05:14;101077.75;;;1.28;100.00
804;BME280;25687;49.976;8.240;2023-01-28T06:07:42;101082.84;;;1.35;100.00
804;BME280;25687;49.976;8.240;2023-01-28T06:10:08;101079.47;;;1.34;100.00
804;BME280;25687;49.976;8.240;2023-01-28T06:12:33;101083.69;;;1.43;100.00
804;BME280;25687;49.976;8.240;2023-01-28T06:14:58;101096.34;;;1.44;100.00
804;BME280;25687;49.976;8.240;2023-01-28T06:17:23;101097.22;;;1.34;100.00
804;BME280;25687;49.976;8.240;2023-01-28T06:19:48;101091.28;;;1.37;100.00
804;BME280;25687;49.976;8.240;2023-01-28T06:22:14;101104.78;;;1.39;100.00
804;BME280;25687;49.976;8.240;2023-01-28T06:24:39;101096.38;;;1.37;100.00
804;BME280;25687;49.976;8.240;2023-01-28T06:27:04;101107.31;;;1.39;100.00
804;BME280;25687;49.976;8.240;2023-01-28T06:29:29;101115.78;;;1.47;100.00
804;BME280;25687;49.976;8.240;2023-01-28T06:31:54;101111.56;;;1.38;100.00
804;BME280;25687;49.976;8.240;2023-01-28T06:34:20;101110.72;;;1.41;100.00
804;BME280;25687;49.976;8.240;2023-01-28T06:36:45;101121.72;;;1.43;100.00
804;BME280;25687;49.976;8.240;2023-01-28T06:39:10;101115.81;;;1.39;100.00
804;BME280;25687;49.976;8.240;2023-01-28T06:41:35;101120.03;;;1.40;100.00
804;BME280;25687;49.976;8.240;2023-01-28T06:44:00;101123.38;;;1.49;100.00
804;BME280;25687;49.976;8.240;2023-01-28T06:46:26;101129.31;;;1.43;100.00
804;BME280;25687;49.976;8.240;2023-01-28T06:48:51;101125.06;;;1.45;100.00
804;BME280;25687;49.976;8.240;2023-01-28T06:51:16;101129.31;;;1.44;100.00
804;BME280;25687;49.976;8.240;2023-01-28T06:53:42;101128.47;;;1.50;100.00
804;BME280;25687;49.976;8.240;2023-01-28T06:56:07;101135.22;;;1.48;100.00
804;BME280;25687;49.976;8.240;2023-01-28T06:58:32;101131.03;;;1.44;100.00
804;BME280;25687;49.976;8.240;2023-01-28T07:00:58;101142.00;;;1.43;100.00
804;BME280;25687;49.976;8.240;2023-01-28T07:03:23;101132.69;;;1.29;100.00
804;BME280;25687;49.976;8.240;2023-01-28T07:05:48;101139.47;;;1.24;100.00
804;BME280;25687;49.976;8.240;2023-01-28T07:08:13;101145.34;;;1.19;100.00
804;BME280;25687;49.976;8.240;2023-01-28T07:10:38;101136.06;;;1.27;100.00
804;BME280;25687;49.976;8.240;2023-01-28T07:13:04;101144.53;;;1.24;100.00
804;BME280;25687;49.976;8.240;2023-01-28T07:15:29;101143.66;;;1.28;100.00
804;BME280;25687;49.976;8.240;2023-01-28T07:17:54;101154.66;;;1.27;100.00
804;BME280;25687;49.976;8.240;2023-01-28T07:20:19;101146.19;;;1.16;100.00
804;BME280;25687;49.976;8.240;2023-01-28T07:22:44;101159.72;;;1.17;100.00
804;BME280;25687;49.976;8.240;2023-01-28T07:25:10;101158.88;;;1.19;100.00
804;BME280;25687;49.976;8.240;2023-01-28T07:27:35;101157.16;;;1.15;100.00
804;BME280;25687;49.976;8.240;2023-01-28T07:30:01;101153.78;;;1.18;100.00
804;BME280;25687;49.976;8.240;2023-01-28T07:32:26;101158.88;;;1.22;100.00
804;BME280;25687;49.976;8.240;2023-01-28T07:34:51;101158.88;;;1.24;100.00
804;BME280;25687;49.976;8.240;2023-01-28T07:37:17;101162.28;;;1.24;100.00
804;BME280;25687;49.976;8.240;2023-01-28T07:39:42;101163.09;;;1.16;100.00
804;BME280;25687;49.976;8.240;2023-01-28T07:42:07;101163.09;;;1.20;100.00
804;BME280;25687;49.976;8.240;2023-01-28T07:44:32;101169.03;;;1.21;100.00
804;BME280;25687;49.976;8.240;2023-01-28T07:46:59;101175.78;;;1.23;100.00
804;BME280;25687;49.976;8.240;2023-01-28T07:49:24;101170.69;;;1.20;100.00
804;BME280;25687;49.976;8.240;2023-01-28T07:51:50;101175.78;;;1.17;100.00
804;BME280;25687;49.976;8.240;2023-01-28T07:54:15;101172.41;;;1.18;100.00
804;BME280;25687;49.976;8.240;2023-01-28T07:56:40;101173.25;;;1.25;100.00
804;BME280;25687;49.976;8.240;2023-01-28T07:59:06;101172.41;;;1.29;100.00
804;BME280;25687;49.976;8.240;2023-01-28T08:01:31;101181.72;;;1.33;100.00
804;BME280;25687;49.976;8.240;2023-01-28T08:03:56;101185.91;;;1.26;100.00
804;BME280;25687;49.976;8.240;2023-01-28T08:06:21;101182.53;;;1.21;100.00
804;BME280;25687;49.976;8.240;2023-01-28T08:08:46;101189.31;;;1.25;100.00
804;BME280;25687;49.976;8.240;2023-01-28T08:11:12;101185.09;;;1.24;100.00
804;BME280;25687;49.976;8.240;2023-01-28T08:13:38;101180.00;;;1.24;100.00
804;BME280;25687;49.976;8.240;2023-01-28T08:16:03;101181.69;;;1.22;100.00
804;BME280;25687;49.976;8.240;2023-01-28T08:18:28;101185.94;;;1.29;100.00
804;BME280;25687;49.976;8.240;2023-01-28T08:20:54;101187.63;;;1.37;100.00
804;BME280;25687;49.976;8.240;2023-01-28T08:23:19;101183.41;;;1.40;100.00
804;BME280;25687;49.976;8.240;2023-01-28T08:25:45;101188.44;;;1.33;100.00
804;BME280;25687;49.976;8.240;2023-01-28T08:28:11;101191.00;;;1.31;100.00
804;BME280;25687;49.976;8.240;2023-01-28T08:30:37;101189.31;;;1.32;100.00
804;BME280;25687;49.976;8.240;2023-01-28T08:33:03;101191.00;;;1.37;100.00
804;BME280;25687;49.976;8.240;2023-01-28T08:35:28;101188.47;;;1.37;100.00
804;BME280;25687;49.976;8.240;2023-01-28T08:37:53;101193.53;;;1.37;100.00
804;BME280;25687;49.976;8.240;2023-01-28T08:40:19;101184.25;;;1.44;100.00
804;BME280;25687;49.976;8.240;2023-01-28T08:42:51;101194.41;;;1.39;100.00
804;BME280;25687;49.976;8.240;2023-01-28T08:45:17;101196.09;;;1.48;100.00
804;BME280;25687;49.976;8.240;2023-01-28T08:47:46;101199.44;;;1.42;100.00
804;BME280;25687;49.976;8.240;2023-01-28T08:50:11;101196.09;;;1.50;100.00
804;BME280;25687;49.976;8.240;2023-01-28T08:52:37;101195.25;;;1.49;100.00
804;BME280;25687;49.976;8.240;2023-01-28T08:55:02;101203.69;;;1.50;100.00
804;BME280;25687;49.976;8.240;2023-01-28T08:57:27;101205.38;;;1.43;100.00
804;BME280;25687;49.976;8.240;2023-01-28T08:59:52;101208.75;;;1.51;100.00
804;BME280;25687;49.976;8.240;2023-01-28T09:02:17;101215.53;;;1.55;100.00
804;BME280;25687;49.976;8.240;2023-01-28T09:04:43;101215.53;;;1.55;100.00
804;BME280;25687;49.976;8.240;2023-01-28T09:07:08;101214.69;;;1.56;100.00
804;BME280;25687;49.976;8.240;2023-01-28T09:09:33;101217.22;;;1.45;100.00
804;BME280;25687;49.976;8.240;2023-01-28T09:11:58;101222.28;;;1.45;100.00
804;BME280;25687;49.976;8.240;2023-01-28T09:14:23;101218.06;;;1.37;100.00
804;BME280;25687;49.976;8.240;2023-01-28T09:16:49;101224.81;;;1.35;100.00
804;BME280;25687;49.976;8.240;2023-01-28T09:19:14;101224.81;;;1.42;100.00
804;BME280;25687;49.976;8.240;2023-01-28T09:21:39;101227.38;;;1.45;100.00
804;BME280;25687;49.976;8.240;2023-01-28T09:24:04;101228.19;;;1.40;100.00
804;BME280;25687;49.976;8.240;2023-01-28T09:26:30;101229.06;;;1.47;100.00
804;BME280;25687;49.976;8.240;2023-01-28T09:28:58;101226.53;;;1.53;100.00
804;BME280;25687;49.976;8.240;2023-01-28T09:31:23;101226.50;;;1.43;100.00
804;BME280;25687;49.976;8.240;2023-01-28T09:33:48;101224.81;;;1.41;100.00
804;BME280;25687;49.976;8.240;2023-01-28T09:36:20;101229.88;;;1.39;100.00
804;BME280;25687;49.976;8.240;2023-01-28T09:38:45;101227.34;;;1.49;100.00
804;BME280;25687;49.976;8.240;2023-01-28T09:41:21;101229.09;;;1.65;100.00
804;BME280;25687;49.976;8.240;2023-01-28T09:46:32;101228.22;;;1.72;100.00
804;BME280;25687;49.976;8.240;2023-01-28T09:48:58;101227.38;;;1.63;100.00
804;BME280;25687;49.976;8.240;2023-01-28T09:51:39;101234.16;;;1.67;100.00
804;BME280;25687;49.976;8.240;2023-01-28T09:54:17;101241.75;;;1.70;100.00
804;BME280;25687;49.976;8.240;2023-01-28T09:56:45;101241.78;;;1.77;100.00
804;BME280;25687;49.976;8.240;2023-01-28T09:59:19;101230.75;;;1.77;100.00
804;BME280;25687;49.976;8.240;2023-01-28T10:01:58;101241.78;;;1.77;100.00
804;BME280;25687;49.976;8.240;2023-01-28T10:07:14;101250.22;;;1.83;100.00
804;BME280;25687;49.976;8.240;2023-01-28T10:09:48;101251.06;;;2.00;100.00
804;BME280;25687;49.976;8.240;2023-01-28T10:17:41;101239.19;;;2.22;100.00
804;BME280;25687;49.976;8.240;2023-01-28T10:22:41;101251.06;;;1.94;100.00
804;BME280;25687;49.976;8.240;2023-01-28T10:25:28;101247.69;;;1.87;100.00
804;BME280;25687;49.976;8.240;2023-01-28T10:27:54;101253.59;;;1.83;100.00
804;BME280;25687;49.976;8.240;2023-01-28T10:32:46;101262.88;;;2.00;100.00
804;BME280;25687;49.976;8.240;2023-01-28T10:35:15;101262.06;;;1.93;100.00
804;BME280;25687;49.976;8.240;2023-01-28T10:37:40;101265.44;;;1.87;100.00
804;BME280;25687;49.976;8.240;2023-01-28T10:40:05;101268.81;;;1.88;100.00
804;BME280;25687;49.976;8.240;2023-01-28T10:42:33;101260.38;;;1.87;100.00
804;BME280;25687;49.976;8.240;2023-01-28T10:45:05;101252.75;;;1.81;100.00
804;BME280;25687;49.976;8.240;2023-01-28T10:47:33;101257.81;;;2.03;100.00
804;BME280;25687;49.976;8.240;2023-01-28T10:50:01;101257.81;;;2.17;100.00
804;BME280;25687;49.976;8.240;2023-01-28T10:52:28;101246.81;;;2.10;100.00
804;BME280;25687;49.976;8.240;2023-01-28T10:55:00;101256.97;;;2.05;100.00
804;BME280;25687;49.976;8.240;2023-01-28T10:57:26;101255.28;;;2.14;100.00
804;BME280;25687;49.976;8.240;2023-01-28T10:59:51;101262.88;;;2.06;100.00
804;BME280;25687;49.976;8.240;2023-01-28T11:02:25;101266.28;;;1.97;100.00
804;BME280;25687;49.976;8.240;2023-01-28T11:05:03;101265.44;;;1.78;100.00
804;BME280;25687;49.976;8.240;2023-01-28T11:07:29;101261.19;;;1.78;100.00
804;BME280;25687;49.976;8.240;2023-01-28T11:09:54;101258.66;;;1.82;100.00
804;BME280;25687;49.976;8.240;2023-01-28T11:12:27;101262.06;;;1.77;100.00
804;BME280;25687;49.976;8.240;2023-01-28T11:14:53;101264.59;;;1.82;100.00
804;BME280;25687;49.976;8.240;2023-01-28T11:17:19;101261.22;;;1.80;100.00
804;BME280;25687;49.976;8.240;2023-01-28T11:19:46;101252.75;;;1.78;100.00
804;BME280;25687;49.976;8.240;2023-01-28T11:22:16;101258.66;;;1.91;100.00
804;BME280;25687;49.976;8.240;2023-01-28T11:24:45;101255.28;;;1.80;100.00
804;BME280;25687;49.976;8.240;2023-01-28T11:27:14;101262.06;;;1.93;100.00
804;BME280;25687;49.976;8.240;2023-01-28T11:29:41;101267.13;;;1.88;100.00
804;BME280;25687;49.976;8.240;2023-01-28T11:32:15;101263.72;;;1.85;100.00
804;BME280;25687;49.976;8.240;2023-01-28T11:34:52;101265.44;;;1.76;100.00
804;BME280;25687;49.976;8.240;2023-01-28T11:37:19;101264.59;;;1.73;100.00
804;BME280;25687;49.976;8.240;2023-01-28T11:39:45;101267.13;;;1.76;100.00
804;BME280;25687;49.976;8.240;2023-01-28T11:42:12;101261.19;;;1.66;100.00
804;BME280;25687;49.976;8.240;2023-01-28T11:44:40;101251.91;;;1.67;100.00
804;BME280;25687;49.976;8.240;2023-01-28T11:47:15;101255.25;;;1.61;100.00
804;BME280;25687;49.976;8.240;2023-01-28T11:49:46;101255.25;;;1.55;100.00
804;BME280;25687;49.976;8.240;2023-01-28T11:52:30;101256.13;;;1.55;100.00
804;BME280;25687;49.976;8.240;2023-01-28T12:08:54;101242.59;;;1.53;100.00
804;BME280;25687;49.976;8.240;2023-01-28T12:11:40;101247.69;;;1.64;100.00
804;BME280;25687;49.976;8.240;2023-01-28T12:14:31;101240.06;;;1.50;100.00
804;BME280;25687;49.976;8.240;2023-01-28T12:17:16;101237.53;;;1.58;100.00
804;BME280;25687;49.976;8.240;2023-01-28T12:20:01;101236.69;;;1.60;100.00
804;BME280;25687;49.976;8.240;2023-01-28T12:22:36;101242.59;;;1.58;100.00
804;BME280;25687;49.976;8.240;2023-01-28T12:25:21;101240.91;;;1.49;100.00
804;BME280;25687;49.976;8.240;2023-01-28T12:30:19;101245.09;;;1.36;100.00
804;BME280;25687;49.976;8.240;2023-01-28T12:38:18;101234.06;;;1.17;100.00
804;BME280;25687;49.976;8.240;2023-01-28T12:43:19;101228.16;;;1.27;100.00
804;BME280;25687;49.976;8.240;2023-01-28T12:45:57;101237.47;;;1.21;100.00
804;BME280;25687;49.976;8.240;2023-01-28T12:56:15;101230.72;;;1.38;100.00
804;BME280;25687;49.976;8.240;2023-01-28T13:01:27;101231.50;;;1.14;100.00
804;BME280;25687;49.976;8.240;2023-01-28T13:04:00;101232.41;;;1.25;100.00
804;BME280;25687;49.976;8.240;2023-01-28T13:06:39;101229.84;;;1.13;100.00
804;BME280;25687;49.976;8.240;2023-01-28T13:09:11;101237.38;;;0.94;100.00
804;BME280;25687;49.976;8.240;2023-01-28T13:11:38;101231.47;;;0.99;100.00
804;BME280;25687;49.976;8.240;2023-01-28T13:14:04;101237.41;;;1.01;100.00
804;BME280;25687;49.976;8.240;2023-01-28T13:16:30;101235.69;;;0.95;100.00
804;BME280;25687;49.976;8.240;2023-01-28T13:19:03;101239.94;;;1.02;100.00
804;BME280;25687;49.976;8.240;2023-01-28T13:21:31;101253.44;;;1.03;100.00
804;BME280;25687;49.976;8.240;2023-01-28T13:29:14;101263.63;;;1.10;100.00
804;BME280;25687;49.976;8.240;2023-01-28T13:31:42;101255.13;;;1.04;100.00
804;BME280;25687;49.976;8.240;2023-01-28T13:34:08;101260.22;;;1.07;100.00
804;BME280;25687;49.976;8.240;2023-01-28T13:36:38;101274.56;;;1.03;100.00
804;BME280;25687;49.976;8.240;2023-01-28T13:39:14;101267.81;;;1.04;100.00
804;BME280;25687;49.976;8.240;2023-01-28T13:46:51;101281.31;;;1.01;100.00
804;BME280;25687;49.976;8.240;2023-01-28T13:49:39;101270.34;;;1.05;100.00
804;BME280;25687;49.976;8.240;2023-01-28T13:54:32;101277.19;;;1.29;100.00
804;BME280;25687;49.976;8.240;2023-01-28T14:02:35;101269.50;;;1.03;100.00
804;BME280;25687;49.976;8.240;2023-01-28T14:05:10;101281.34;;;1.06;100.00
804;BME280;25687;49.976;8.240;2023-01-28T14:13:01;101291.47;;;1.04;100.00
804;BME280;25687;49.976;8.240;2023-01-28T14:20:44;101272.81;;;0.90;100.00
804;BME280;25687;49.976;8.240;2023-01-28T14:23:16;101277.09;;;0.99;100.00
804;BME280;25687;49.976;8.240;2023-01-28T14:28:16;101279.63;;;1.08;100.00
804;BME280;25687;49.976;8.240;2023-01-28T14:30:49;101275.41;;;1.02;100.00
804;BME280;25687;49.976;8.240;2023-01-28T14:33:17;101288.91;;;1.00;100.00
804;BME280;25687;49.976;8.240;2023-01-28T14:35:44;101284.69;;;0.97;100.00
804;BME280;25687;49.976;8.240;2023-01-28T14:38:12;101288.91;;;0.98;100.00
804;BME280;25687;49.976;8.240;2023-01-28T14:40:38;101283.00;;;0.96;100.00
804;BME280;25687;49.976;8.240;2023-01-28T14:43:10;101289.75;;;1.00;100.00
804;BME280;25687;49.976;8.240;2023-01-28T14:50:59;101282.22;;;1.17;100.00
804;BME280;25687;49.976;8.240;2023-01-28T14:58:42;101278.72;;;0.89;100.00
804;BME280;25687;49.976;8.240;2023-01-28T15:01:18;101276.19;;;0.89;100.00
804;BME280;25687;49.976;8.240;2023-01-28T15:03:44;101272.03;;;0.97;100.00